createdAt,value
2023-01-25T00:00:00.642Z,102409.72
2023-01-25T00:02:28.998Z,102410.28
2023-01-25T00:04:55.755Z,102405.75
2023-01-25T00:07:22.543Z,102394.97
2023-01-25T00:09:49.274Z,102397.69
2023-01-25T00:12:16.096Z,102390.66
2023-01-25T00:14:42.900Z,102386.50
2023-01-25T00:17:09.629Z,102372.38
2023-01-25T00:19:37.717Z,102378.25
2023-01-25T00:22:04.467Z,102368.78
2023-01-25T00:24:31.751Z,102370.25
2023-01-25T00:26:58.543Z,102363.31
2023-01-25T00:29:25.329Z,102361.59
2023-01-25T00:32:02.379Z,102362.94
2023-01-25T00:34:47.673Z,102368.09
2023-01-25T00:37:20.636Z,102357.19
2023-01-25T00:39:47.438Z,102358.19
2023-01-25T00:42:15.270Z,102356.13
2023-01-25T00:44:42.350Z,102357.72
2023-01-25T00:47:09.592Z,102356.97
2023-01-25T00:49:36.327Z,102354.69
2023-01-25T00:52:04.799Z,102351.41
2023-01-25T00:54:31.569Z,102353.69
2023-01-25T00:56:58.389Z,102355.28
2023-01-25T00:59:25.604Z,102347.94
2023-01-25T01:01:53.514Z,102343.25
2023-01-25T01:04:21.001Z,102344.97
2023-01-25T01:06:47.732Z,102339.38
2023-01-25T01:09:17.477Z,102337.03
2023-01-25T01:11:44.485Z,102335.63
2023-01-25T01:14:11.397Z,102336.66
2023-01-25T01:16:38.192Z,102329.91
2023-01-25T01:19:05.504Z,102333.38
2023-01-25T01:21:32.847Z,102329.56
2023-01-25T01:23:59.664Z,102322.44
2023-01-25T01:26:27.942Z,102317.84
2023-01-25T01:28:54.678Z,102318.88
2023-01-25T01:31:24.026Z,102319.88
2023-01-25T01:33:52.648Z,102317.63
2023-01-25T01:36:21.646Z,102323.34
2023-01-25T01:38:48.864Z,102324.06
2023-01-25T01:41:16.448Z,102321.34
2023-01-25T01:43:44.954Z,102316.75
2023-01-25T01:46:15.657Z,102312.44
2023-01-25T01:48:47.293Z,102308.16
2023-01-25T01:51:19.894Z,102314.41
2023-01-25T01:53:50.870Z,102321.59
2023-01-25T01:56:22.059Z,102309.81
2023-01-25T01:58:52.996Z,102312.38
2023-01-25T02:01:19.831Z,102313.38
2023-01-25T02:03:48.348Z,102316.69
2023-01-25T02:06:20.423Z,102311.66
2023-01-25T02:08:47.590Z,102311.66
2023-01-25T02:11:14.411Z,102314.84
2023-01-25T02:13:41.509Z,102313.41
2023-01-25T02:16:15.695Z,102314.28
2023-01-25T02:18:42.484Z,102299.22
2023-01-25T02:21:10.212Z,102298.81
2023-01-25T02:23:45.011Z,102291.50
2023-01-25T02:26:14.550Z,102296.38
2023-01-25T02:28:46.878Z,102292.66
2023-01-25T02:31:13.694Z,102292.94
2023-01-25T02:33:40.463Z,102297.81
2023-01-25T02:36:20.174Z,102285.75
2023-01-25T02:38:51.620Z,102281.44
2023-01-25T02:41:24.640Z,102290.72
2023-01-25T02:43:51.671Z,102286.44
2023-01-25T02:46:22.739Z,102288.41
2023-01-25T02:48:49.631Z,102285.38
2023-01-25T02:51:16.391Z,102288.13
2023-01-25T02:53:43.170Z,102294.88
2023-01-25T02:56:09.919Z,102297.16
2023-01-25T02:58:38.006Z,102297.16
2023-01-25T03:01:04.726Z,102295.84
2023-01-25T03:03:31.474Z,102286.38
2023-01-25T03:05:58.228Z,102283.38
2023-01-25T03:08:24.968Z,102286.97
2023-01-25T03:10:51.796Z,102278.66
2023-01-25T03:13:18.628Z,102280.38
2023-01-25T03:15:46.734Z,102278.19
2023-01-25T03:18:13.488Z,102271.09
2023-01-25T03:20:40.229Z,102279.09
2023-01-25T03:23:06.923Z,102273.34
2023-01-25T03:25:33.680Z,102270.22
2023-01-25T03:28:00.376Z,102270.72
2023-01-25T03:30:27.139Z,102266.84
2023-01-25T03:32:55.222Z,102267.25
2023-01-25T03:35:21.960Z,102267.25
2023-01-25T03:37:48.623Z,102275.13
2023-01-25T03:40:15.655Z,102272.38
2023-01-25T03:42:42.408Z,102266.19
2023-01-25T03:45:10.011Z,102268.63
2023-01-25T03:47:36.902Z,102270.22
2023-01-25T03:50:05.971Z,102260.59
2023-01-25T03:52:32.676Z,102255.88
2023-01-25T03:54:59.437Z,102255.00
2023-01-25T03:57:26.163Z,102250.81
2023-01-25T03:59:52.865Z,102257.00
2023-01-25T04:02:19.684Z,102257.13
2023-01-25T04:04:46.420Z,102251.81
2023-01-25T04:07:14.511Z,102242.53
2023-01-25T04:09:41.317Z,102246.72
2023-01-25T04:12:08.072Z,102246.72
2023-01-25T04:14:43.980Z,102235.75
2023-01-25T04:17:11.209Z,102232.16
2023-01-25T04:19:37.931Z,102223.97
2023-01-25T04:22:04.686Z,102227.25
2023-01-25T04:24:32.895Z,102231.81
2023-01-25T04:26:59.662Z,102227.88
2023-01-25T04:29:40.090Z,102227.72
2023-01-25T04:32:08.068Z,102221.50
2023-01-25T04:34:34.870Z,102227.47
2023-01-25T04:37:01.576Z,102222.06
2023-01-25T04:39:28.496Z,102223.69
2023-01-25T04:41:56.679Z,102218.94
2023-01-25T04:44:23.492Z,102215.91
2023-01-25T04:46:50.239Z,102218.53
2023-01-25T04:49:17.013Z,102213.97
2023-01-25T04:51:43.750Z,102206.03
2023-01-25T04:54:10.469Z,102205.03
2023-01-25T04:56:37.157Z,102199.72
2023-01-25T04:59:05.273Z,102198.28
2023-01-25T05:01:32.033Z,102195.41
2023-01-25T05:03:58.965Z,102187.88
2023-01-25T05:06:25.998Z,102188.88
2023-01-25T05:08:52.814Z,102181.53
2023-01-25T05:11:19.566Z,102187.22
2023-01-25T05:13:46.266Z,102187.88
2023-01-25T05:16:14.469Z,102185.81
2023-01-25T05:18:48.333Z,102182.06
2023-01-25T05:21:15.820Z,102172.63
2023-01-25T05:23:42.522Z,102182.25
2023-01-25T05:26:09.291Z,102180.25
2023-01-25T05:28:36.043Z,102167.22
2023-01-25T05:31:04.210Z,102164.06
2023-01-25T05:33:32.363Z,102160.88
2023-01-25T05:35:59.355Z,102166.59
2023-01-25T05:38:26.077Z,102167.03
2023-01-25T05:40:52.792Z,102173.72
2023-01-25T05:43:19.637Z,102174.28
2023-01-25T05:45:52.729Z,102172.97
2023-01-25T05:48:19.531Z,102168.59
2023-01-25T05:50:47.629Z,102182.16
2023-01-25T05:53:14.368Z,102178.03
2023-01-25T05:55:41.222Z,102178.19
2023-01-25T05:58:07.950Z,102171.84
2023-01-25T06:00:34.718Z,102175.38
2023-01-25T06:03:02.064Z,102177.41
2023-01-25T06:05:28.914Z,102177.56
2023-01-25T06:07:58.286Z,102179.34
2023-01-25T06:10:25.214Z,102166.91
2023-01-25T06:12:56.908Z,102170.34
2023-01-25T06:15:23.635Z,102176.50
2023-01-25T06:17:54.057Z,102166.59
2023-01-25T06:20:20.855Z,102171.75
2023-01-25T06:22:49.855Z,102175.50
2023-01-25T06:25:18.174Z,102174.69
2023-01-25T06:27:44.959Z,102173.53
2023-01-25T06:30:12.134Z,102162.22
2023-01-25T06:32:39.409Z,102159.31
2023-01-25T06:35:06.818Z,102158.25
2023-01-25T06:37:33.794Z,102161.50
2023-01-25T06:40:00.686Z,102160.41
2023-01-25T06:42:28.807Z,102164.44
2023-01-25T06:44:55.508Z,102164.16
2023-01-25T06:47:22.242Z,102156.97
2023-01-25T06:49:49.048Z,102165.88
2023-01-25T06:52:15.852Z,102162.84
2023-01-25T06:54:42.787Z,102161.69
2023-01-25T06:57:09.538Z,102155.81
2023-01-25T06:59:37.745Z,102152.06
2023-01-25T07:02:04.645Z,102160.97
2023-01-25T07:04:31.348Z,102154.66
2023-01-25T07:06:58.070Z,102157.84
2023-01-25T07:09:24.860Z,102148.50
2023-01-25T07:11:51.667Z,102147.03
2023-01-25T07:14:18.542Z,102144.75
2023-01-25T07:16:46.667Z,102139.44
2023-01-25T07:19:13.511Z,102142.47
2023-01-25T07:21:40.197Z,102133.13
2023-01-25T07:24:07.310Z,102132.41
2023-01-25T07:26:34.092Z,102132.25
2023-01-25T07:29:00.915Z,102136.72
2023-01-25T07:31:27.843Z,102131.25
2023-01-25T07:33:57.399Z,102126.19
2023-01-25T07:36:25.446Z,102119.88
2023-01-25T07:38:53.513Z,102113.94
2023-01-25T07:41:20.282Z,102116.16
2023-01-25T07:43:46.945Z,102115.81
2023-01-25T07:46:14.290Z,102114.34
2023-01-25T07:48:45.208Z,102117.53
2023-01-25T07:51:13.537Z,102112.91
2023-01-25T07:53:41.462Z,102097.91
2023-01-25T07:56:09.534Z,102092.44
2023-01-25T07:58:36.659Z,102085.31
2023-01-25T08:01:07.225Z,102077.84
2023-01-25T08:03:34.061Z,102076.66
2023-01-25T08:06:00.895Z,102066.63
2023-01-25T08:08:28.999Z,102064.91
2023-01-25T08:10:55.737Z,102060.59
2023-01-25T08:13:22.536Z,102056.88
2023-01-25T08:15:53.849Z,102055.84
2023-01-25T08:18:20.562Z,102058.72
2023-01-25T08:20:47.578Z,102058.28
2023-01-25T08:23:14.399Z,102059.41
2023-01-25T08:25:42.714Z,102052.22
2023-01-25T08:28:09.417Z,102049.00
2023-01-25T08:30:36.649Z,102035.84
2023-01-25T08:33:04.631Z,102035.66
2023-01-25T08:35:31.367Z,102041.50
2023-01-25T08:37:58.093Z,102036.91
2023-01-25T08:40:24.788Z,102027.53
2023-01-25T08:42:53.017Z,102028.72
2023-01-25T08:45:19.771Z,102028.63
2023-01-25T08:47:46.464Z,102012.56
2023-01-25T08:50:13.190Z,102020.97
2023-01-25T08:52:39.912Z,102029.44
2023-01-25T08:55:07.179Z,102024.34
2023-01-25T08:57:33.862Z,102020.00
2023-01-25T09:00:02.474Z,102012.28
2023-01-25T09:02:29.353Z,101997.28
2023-01-25T09:04:56.088Z,101989.47
2023-01-25T09:07:23.200Z,101972.25
2023-01-25T09:09:49.917Z,101971.06
2023-01-25T09:12:16.597Z,101964.78
2023-01-25T09:14:43.314Z,101969.75
2023-01-25T09:17:11.411Z,101965.34
2023-01-25T09:19:38.119Z,101963.69
2023-01-25T09:22:04.882Z,101957.88
2023-01-25T09:24:31.647Z,101939.81
2023-01-25T09:27:00.121Z,101920.34
2023-01-25T09:29:27.313Z,101920.03
2023-01-25T09:31:54.149Z,101907.59
2023-01-25T09:34:22.310Z,101922.31
2023-01-25T09:36:49.056Z,101925.59
2023-01-25T09:39:15.740Z,101916.38
2023-01-25T09:42:14.986Z,101916.06
2023-01-25T09:45:12.427Z,101941.19
2023-01-25T09:47:48.455Z,101937.44
2023-01-25T09:50:32.028Z,101938.28
2023-01-25T09:53:22.534Z,101933.50
2023-01-25T09:55:55.681Z,101936.09
2023-01-25T09:58:30.695Z,101935.91
2023-01-25T10:01:14.031Z,101938.47
2023-01-25T10:03:48.801Z,101944.66
2023-01-25T10:06:17.884Z,101947.69
2023-01-25T10:08:51.904Z,101943.94
2023-01-25T10:11:24.680Z,101941.91
2023-01-25T10:13:52.847Z,101947.72
2023-01-25T10:16:26.116Z,101948.22
2023-01-25T10:19:01.504Z,101947.69
2023-01-25T10:21:34.576Z,101958.31
2023-01-25T10:24:20.317Z,101973.03
2023-01-25T10:26:52.477Z,101973.88
2023-01-25T10:29:20.743Z,101986.19
2023-01-25T10:31:49.317Z,101975.59
2023-01-25T10:34:20.575Z,101974.53
2023-01-25T10:36:53.645Z,101969.09
2023-01-25T10:39:20.810Z,101962.94
2023-01-25T10:41:53.563Z,101974.75
2023-01-25T10:44:20.338Z,101979.69
2023-01-25T10:46:52.188Z,101976.09
2023-01-25T10:49:24.162Z,101986.38
2023-01-25T10:51:52.367Z,101983.81
2023-01-25T10:54:19.058Z,101974.06
2023-01-25T10:56:46.359Z,101968.41
2023-01-25T10:59:20.196Z,101979.38
2023-01-25T11:01:47.001Z,101959.34
2023-01-25T11:04:37.759Z,101961.22
2023-01-25T11:07:06.429Z,101969.09
2023-01-25T11:09:36.762Z,101970.81
2023-01-25T11:12:06.106Z,101972.88
2023-01-25T11:14:33.736Z,101978.84
2023-01-25T11:17:03.689Z,101977.66
2023-01-25T11:19:34.051Z,101962.41
2023-01-25T11:22:03.007Z,101955.44
2023-01-25T11:24:32.579Z,101947.00
2023-01-25T11:27:18.644Z,101940.16
2023-01-25T11:29:46.436Z,101940.69
2023-01-25T11:32:18.550Z,101937.94
2023-01-25T11:34:45.233Z,101936.59
2023-01-25T11:37:38.130Z,101926.69
2023-01-25T11:40:17.728Z,101916.38
2023-01-25T11:42:59.988Z,101905.78
2023-01-25T11:46:02.380Z,101909.19
2023-01-25T11:49:12.094Z,101900.94
2023-01-25T11:51:43.334Z,101898.66
2023-01-25T11:54:32.474Z,101889.75
2023-01-25T11:57:10.091Z,101881.19
2023-01-25T11:59:55.050Z,101879.38
2023-01-25T12:02:50.271Z,101873.88
2023-01-25T12:05:33.248Z,101866.19
2023-01-25T12:08:12.319Z,101877.31
2023-01-25T12:10:47.771Z,101868.56
2023-01-25T12:13:22.867Z,101881.72
2023-01-25T12:16:12.431Z,101873.97
2023-01-25T12:18:57.658Z,101880.97
2023-01-25T12:21:40.759Z,101871.09
2023-01-25T12:24:28.313Z,101860.13
2023-01-25T12:27:07.710Z,101855.13
2023-01-25T12:29:40.684Z,101839.03
2023-01-25T12:32:18.344Z,101831.81
2023-01-25T12:34:51.164Z,101842.13
2023-01-25T12:37:23.338Z,101850.06
2023-01-25T12:39:55.867Z,101847.81
2023-01-25T12:42:29.614Z,101834.34
2023-01-25T12:45:02.673Z,101829.09
2023-01-25T12:47:34.949Z,101816.59
2023-01-25T12:50:12.911Z,101815.94
2023-01-25T12:52:45.534Z,101817.41
2023-01-25T12:55:14.765Z,101813.25
2023-01-25T12:57:47.418Z,101792.03
2023-01-25T13:00:25.955Z,101782.06
2023-01-25T13:03:11.003Z,101783.53
2023-01-25T13:05:45.586Z,101781.94
2023-01-25T13:08:31.101Z,101788.81
2023-01-25T13:11:08.616Z,101792.94
2023-01-25T13:13:35.412Z,101786.78
2023-01-25T13:16:40.795Z,101790.84
2023-01-25T13:19:19.475Z,101783.41
2023-01-25T13:21:47.365Z,101769.06
2023-01-25T13:24:19.870Z,101768.94
2023-01-25T13:26:58.529Z,101770.34
2023-01-25T13:29:44.016Z,101770.03
2023-01-25T13:32:14.150Z,101757.53
2023-01-25T13:34:57.531Z,101755.47
2023-01-25T13:37:26.564Z,101760.94
2023-01-25T13:39:54.491Z,101757.53
2023-01-25T13:42:23.573Z,101754.97
2023-01-25T13:44:53.459Z,101742.13
2023-01-25T13:47:23.758Z,101742.13
2023-01-25T13:49:56.663Z,101735.47
2023-01-25T13:52:24.870Z,101728.59
2023-01-25T13:54:55.903Z,101730.00
2023-01-25T13:57:25.941Z,101729.66
2023-01-25T14:00:09.864Z,101723.28
2023-01-25T14:02:41.774Z,101724.13
2023-01-25T14:05:17.873Z,101709.69
2023-01-25T14:07:47.601Z,101710.09
2023-01-25T14:10:17.992Z,101717.28
2023-01-25T14:12:45.104Z,101710.91
2023-01-25T14:15:20.267Z,101702.97
2023-01-25T14:18:04.652Z,101691.28
2023-01-25T14:20:31.829Z,101694.47
2023-01-25T14:22:58.511Z,101695.06
2023-01-25T14:25:25.297Z,101687.69
2023-01-25T14:27:54.648Z,101688.13
2023-01-25T14:30:24.902Z,101685.06
2023-01-25T14:32:54.983Z,101695.06
2023-01-25T14:35:54.181Z,101680.59
2023-01-25T14:38:26.114Z,101689.25
2023-01-25T14:40:56.822Z,101695.69
2023-01-25T14:43:25.188Z,101692.84
2023-01-25T14:45:51.990Z,101697.13
2023-01-25T14:48:40.845Z,101697.47
2023-01-25T14:51:18.332Z,101697.22
2023-01-25T14:53:48.822Z,101715.59
2023-01-25T14:56:29.738Z,101712.81
2023-01-25T14:58:59.803Z,101719.63
2023-01-25T15:01:32.859Z,101726.00
2023-01-25T15:04:01.135Z,101723.28
2023-01-25T15:06:28.019Z,101727.69
2023-01-25T15:08:54.948Z,101733.56
2023-01-25T15:11:28.699Z,101737.63
2023-01-25T15:14:01.729Z,101723.44
2023-01-25T15:16:33.390Z,101726.50
2023-01-25T15:19:01.543Z,101731.03
2023-01-25T15:21:30.535Z,101719.31
2023-01-25T15:23:59.292Z,101732.97
2023-01-25T15:26:27.804Z,101734.00
2023-01-25T15:28:56.937Z,101738.41
2023-01-25T15:31:26.443Z,101723.94
2023-01-25T15:33:54.116Z,101725.09
2023-01-25T15:36:22.488Z,101717.50
2023-01-25T15:38:49.214Z,101727.44
2023-01-25T15:41:15.924Z,101725.69
2023-01-25T15:43:42.837Z,101723.94
2023-01-25T15:46:16.666Z,101726.78
2023-01-25T15:48:45.349Z,101729.84
2023-01-25T15:51:12.577Z,101729.31
2023-01-25T15:53:40.785Z,101724.00
2023-01-25T15:56:13.975Z,101716.91
2023-01-25T15:58:42.732Z,101718.84
2023-01-25T16:01:10.124Z,101726.31
2023-01-25T16:03:36.912Z,101705.03
2023-01-25T16:06:07.140Z,101705.34
2023-01-25T16:08:36.879Z,101707.56
2023-01-25T16:11:04.913Z,101716.81
2023-01-25T16:13:31.603Z,101719.94
2023-01-25T16:16:00.240Z,101713.56
2023-01-25T16:18:26.916Z,101715.94
2023-01-25T16:20:53.605Z,101710.94
2023-01-25T16:23:20.271Z,101698.28
2023-01-25T16:25:48.609Z,101700.41
2023-01-25T16:28:17.434Z,101709.22
2023-01-25T16:30:44.245Z,101708.34
2023-01-25T16:33:11.061Z,101703.06
2023-01-25T16:35:38.851Z,101714.19
2023-01-25T16:38:05.599Z,101727.84
2023-01-25T16:40:34.915Z,101725.09
2023-01-25T16:43:01.569Z,101706.50
2023-01-25T16:45:29.814Z,101705.47
2023-01-25T16:47:56.464Z,101704.94
2023-01-25T16:50:23.729Z,101708.00
2023-01-25T16:52:50.389Z,101704.75
2023-01-25T16:55:18.612Z,101702.34
2023-01-25T16:57:50.331Z,101705.72
2023-01-25T17:00:17.762Z,101703.31
2023-01-25T17:02:58.272Z,101705.72
2023-01-25T17:05:26.153Z,101720.53
2023-01-25T17:07:52.908Z,101716.16
2023-01-25T17:10:19.890Z,101726.56
2023-01-25T17:12:46.645Z,101719.25
2023-01-25T17:15:13.315Z,101722.97
2023-01-25T17:17:40.048Z,101721.81
2023-01-25T17:20:10.416Z,101737.06
2023-01-25T17:22:37.372Z,101734.13
2023-01-25T17:25:04.361Z,101745.66
2023-01-25T17:27:31.075Z,101742.53
2023-01-25T17:29:57.766Z,101740.81
2023-01-25T17:32:24.689Z,101756.34
2023-01-25T17:34:51.466Z,101761.41
2023-01-25T17:37:19.620Z,101745.22
2023-01-25T17:39:46.278Z,101745.03
2023-01-25T17:42:12.940Z,101743.41
2023-01-25T17:44:39.599Z,101757.19
2023-01-25T17:47:06.324Z,101757.16
2023-01-25T17:49:32.987Z,101750.56
2023-01-25T17:51:59.638Z,101751.41
2023-01-25T17:54:27.719Z,101750.75
2023-01-25T17:56:54.400Z,101755.81
2023-01-25T17:59:21.186Z,101764.16
2023-01-25T18:01:48.021Z,101759.41
2023-01-25T18:04:14.714Z,101756.84
2023-01-25T18:06:41.426Z,101763.84
2023-01-25T18:09:08.423Z,101751.66
2023-01-25T18:11:38.318Z,101767.84
2023-01-25T18:14:08.454Z,101761.13
2023-01-25T18:16:37.462Z,101767.25
2023-01-25T18:19:04.744Z,101783.47
2023-01-25T18:21:32.794Z,101787.19
2023-01-25T18:24:01.905Z,101786.69
2023-01-25T18:26:33.173Z,101771.25
2023-01-25T18:29:22.001Z,101765.97
2023-01-25T18:31:48.700Z,101765.53
2023-01-25T18:34:15.466Z,101781.13
2023-01-25T18:36:42.177Z,101792.72
2023-01-25T18:39:09.048Z,101791.88
2023-01-25T18:41:35.698Z,101798.00
2023-01-25T18:44:03.922Z,101796.50
2023-01-25T18:46:30.741Z,101794.72
2023-01-25T18:48:57.436Z,101786.47
2023-01-25T18:51:24.168Z,101796.44
2023-01-25T18:53:50.852Z,101798.91
2023-01-25T18:56:19.977Z,101794.31
2023-01-25T18:58:47.271Z,101806.47
2023-01-25T19:01:17.811Z,101809.94
2023-01-25T19:03:46.288Z,101780.28
2023-01-25T19:06:13.439Z,101784.56
2023-01-25T19:08:40.355Z,101797.44
2023-01-25T19:11:09.375Z,101807.97
2023-01-25T19:13:38.204Z,101813.66
2023-01-25T19:16:07.674Z,101810.94
2023-01-25T19:18:37.576Z,101802.88
2023-01-25T19:21:08.051Z,101808.88
2023-01-25T19:23:36.603Z,101820.16
2023-01-25T19:26:03.913Z,101821.44
2023-01-25T19:28:30.613Z,101834.63
2023-01-25T19:30:57.523Z,101838.22
2023-01-25T19:33:24.231Z,101840.75
2023-01-25T19:36:00.641Z,101837.13
2023-01-25T19:38:27.550Z,101827.88
2023-01-25T19:40:54.310Z,101831.91
2023-01-25T19:43:21.044Z,101824.03
2023-01-25T19:45:47.698Z,101828.19
2023-01-25T19:48:14.380Z,101823.81
2023-01-25T19:50:41.101Z,101830.69
2023-01-25T19:53:09.134Z,101834.41
2023-01-25T19:55:35.768Z,101832.00
2023-01-25T19:58:02.423Z,101842.03
2023-01-25T20:00:31.792Z,101822.28
2023-01-25T20:03:10.687Z,101834.13
2023-01-25T20:05:42.499Z,101825.81
2023-01-25T20:08:10.500Z,101843.13
2023-01-25T20:10:37.186Z,101844.72
2023-01-25T20:13:03.856Z,101836.28
2023-01-25T20:15:33.567Z,101836.56
2023-01-25T20:18:00.224Z,101835.84
2023-01-25T20:20:26.862Z,101834.00
2023-01-25T20:22:53.493Z,101828.03
2023-01-25T20:25:21.516Z,101830.88
2023-01-25T20:27:48.149Z,101829.84
2023-01-25T20:30:15.024Z,101831.00
2023-01-25T20:32:41.839Z,101835.72
2023-01-25T20:35:09.671Z,101838.72
2023-01-25T20:37:36.478Z,101842.03
2023-01-25T20:40:03.256Z,101838.28
2023-01-25T20:42:31.327Z,101842.47
2023-01-25T20:44:57.964Z,101845.75
2023-01-25T20:47:24.700Z,101853.84
2023-01-25T20:49:51.497Z,101847.16
2023-01-25T20:52:18.128Z,101848.97
2023-01-25T20:54:44.769Z,101847.34
2023-01-25T20:57:11.608Z,101843.94
2023-01-25T20:59:39.641Z,101852.06
2023-01-25T21:02:06.877Z,101850.75
2023-01-25T21:04:33.749Z,101856.03
2023-01-25T21:07:00.449Z,101860.75
2023-01-25T21:09:27.067Z,101870.53
2023-01-25T21:11:53.757Z,101867.56
2023-01-25T21:14:20.415Z,101859.06
2023-01-25T21:16:48.538Z,101863.63
2023-01-25T21:19:15.181Z,101864.22
2023-01-25T21:21:41.848Z,101862.72
2023-01-25T21:24:09.222Z,101869.56
2023-01-25T21:26:36.579Z,101870.31
2023-01-25T21:29:05.339Z,101872.88
2023-01-25T21:31:33.557Z,101858.81
2023-01-25T21:34:02.369Z,101864.84
2023-01-25T21:36:29.464Z,101860.78
2023-01-25T21:38:56.467Z,101862.44
2023-01-25T21:41:25.059Z,101880.03
2023-01-25T21:43:53.405Z,101883.28
2023-01-25T21:46:20.552Z,101886.44
2023-01-25T21:48:47.165Z,101883.97
2023-01-25T21:51:15.151Z,101880.56
2023-01-25T21:53:41.852Z,101872.03
2023-01-25T21:56:08.538Z,101875.53
2023-01-25T21:58:35.168Z,101866.00
2023-01-25T22:01:03.728Z,101874.47
2023-01-25T22:03:30.393Z,101873.28
2023-01-25T22:05:57.031Z,101865.47
2023-01-25T22:08:25.031Z,101858.19
2023-01-25T22:10:51.678Z,101859.84
2023-01-25T22:13:18.357Z,101858.25
2023-01-25T22:15:45.108Z,101859.56
2023-01-25T22:18:11.784Z,101858.00
2023-01-25T22:20:38.434Z,101858.63
2023-01-25T22:23:05.065Z,101873.06
2023-01-25T22:25:33.226Z,101872.34
2023-01-25T22:28:00.185Z,101881.78
2023-01-25T22:30:26.985Z,101892.75
2023-01-25T22:32:53.656Z,101877.63
2023-01-25T22:35:20.541Z,101883.38
2023-01-25T22:37:47.171Z,101876.50
2023-01-25T22:40:14.240Z,101885.03
2023-01-25T22:42:42.307Z,101889.84
2023-01-25T22:45:09.709Z,101896.97
2023-01-25T22:47:36.417Z,101890.78
2023-01-25T22:50:04.188Z,101887.75
2023-01-25T22:52:32.761Z,101902.63
2023-01-25T22:54:59.531Z,101908.69
2023-01-25T22:57:26.228Z,101904.13
2023-01-25T22:59:54.337Z,101910.53
2023-01-25T23:02:21.342Z,101899.22
2023-01-25T23:04:48.027Z,101909.66
2023-01-25T23:07:14.764Z,101900.44
2023-01-25T23:09:41.526Z,101890.22
2023-01-25T23:12:08.342Z,101899.19
2023-01-25T23:14:35.170Z,101891.09
2023-01-25T23:17:03.320Z,101889.63
2023-01-25T23:19:30.190Z,101896.16
2023-01-25T23:21:56.851Z,101902.66
2023-01-25T23:24:23.583Z,101907.84
2023-01-25T23:26:50.237Z,101910.53
2023-01-25T23:29:16.910Z,101909.03
2023-01-25T23:31:43.643Z,101901.09
2023-01-25T23:34:11.822Z,101906.09
2023-01-25T23:36:38.660Z,101897.84
2023-01-25T23:39:05.589Z,101903.16
2023-01-25T23:41:32.563Z,101903.41
2023-01-25T23:43:59.290Z,101910.44
2023-01-25T23:46:26.296Z,101906.25
2023-01-25T23:48:53.025Z,101897.50
2023-01-25T23:51:21.283Z,101905.00
2023-01-25T23:53:48.279Z,101893.56
2023-01-25T23:56:17.059Z,101888.41
2023-01-25T23:58:44.308Z,101887.53
